Flight Track Log - Related Links

Times and Time Zones

All times are in EDT time to prevent confusion due to time zone crossing. See the UAL3776 flight status page for this flight to view local times or setup timezone preferences in your user account.

Time Position Orientation Groundspeed Altitude Reporting Facility
EDT Latitude Longitude Course Direction KTS MPH feet Rate Location/Type
Tue 03:40:58 PM 38.9333 -77.5167 185° South 179 206 1,900  Level Potomac TRACON
Tue 03:42:46 PM 38.8181 -77.5553 195° South 243 280 6,400 2,731 Climbing Washington Center
Tue 03:43:45 PM 38.7494 -77.5561 181° South 277 319 9,500 2,571 Climbing Washington Center
Tue 03:44:45 PM 38.6597 -77.5564 180° South 295 339 11,500 1,983 Climbing Washington Center
Tue 03:45:46 PM 38.5742 -77.5622 183° South 330 380 13,500 2,250 Climbing Washington Center
Tue 03:46:00 PM 38.5040 -77.6590 185° South  Level Estimated
Tue 03:46:45 PM 38.4678 -77.5644 181° South 343 395 16,000  Level Washington Center
Tue 03:47:45 PM 38.3778 -77.5886 192° South 367 422 17,900 1,934 Climbing Washington Center
Tue 03:48:46 PM 38.2825 -77.6656 212° Southwest 362 417 19,900 1,850 Climbing Washington Center
Tue 03:49:45 PM 38.1978 -77.7397 215° Southwest 371 427 21,600 1,765 Climbing Washington Center
Tue 03:50:45 PM 38.1067 -77.8164 214° Southwest 392 451 23,400 1,190 Climbing Washington Center
Tue 03:51:46 PM 38.0347 -77.8750 213° Southwest 392 451 24,000 300 Climbing Washington Center
Tue 03:52:45 PM 37.9244 -77.9717 215° Southwest 418 481 24,000  Level Washington Center
Tue 03:53:45 PM 37.8225 -78.0603 214° Southwest 437 503 24,000  Level Washington Center
Tue 03:54:46 PM 37.7206 -78.1464 214° Southwest 443 510 24,000 -350 Level Washington Center
Tue 03:55:45 PM 37.6122 -78.2397 214° Southwest 443 510 23,300 -857 Descending Washington Center
Tue 03:56:45 PM 37.5186 -78.3175 213° Southwest 443 510 22,300 -645 Descending Washington Center
Tue 03:57:46 PM 37.4208 -78.3978 213° Southwest 443 510 22,000 -149 Descending Washington Center
Tue 03:58:46 PM 37.3314 -78.4728 214° Southwest 425 489 22,000  Level Washington Center
Tue 03:59:46 PM 37.2400 -78.5478 213° Southwest 413 475 22,000 -50 Level Washington Center
Tue 04:00:46 PM 37.1258 -78.6058 202° Southwest 400 460 21,900 -605 Descending Washington Center
Tue 04:01:45 PM 37.0183 -78.6561 200° South 400 460 20,800 -1,361 Descending Washington Center
Tue 04:02:45 PM 36.9106 -78.7039 200° South 406 467 19,200 -1,636 Descending Washington Center
Tue 04:03:46 PM 36.8072 -78.7517 200° South 412 474 17,500 -1,835 Descending Washington Center
Tue 04:04:46 PM 36.7142 -78.7944 200° South 412 474 15,500 -2,069 Descending Washington Center
Tue 04:05:13 PM 36.6572 -78.8206 200° South 385 443 14,500 -2,200 Descending Washington Center
Tue 04:05:46 PM 36.6064 -78.8469 203° Southwest 394 453 13,300 -1,967 Descending Washington Center
Tue 04:06:14 PM 36.5619 -78.8658 199° South 373 429 12,500 -3,356 Descending Washington Center
Tue 04:06:45 PM 36.5092 -78.8869 198° South 382 440 10,000 -1,967 Descending Washington Center
Tue 04:07:15 PM 36.4669 -78.9056 200° South 360 414 10,500  Climbing Washington Center
Tue 04:07:45 PM 36.4164 -78.9267 199° South 372 428 10,000 -400 Descending Washington Center
Tue 04:08:15 PM 36.3664 -78.9272 181° South 344 396 10,100  Climbing Washington Center
Tue 04:08:45 PM 36.3331 -78.9156 164° South 342 394 10,000 -393 Descending Washington Center
Tue 04:09:16 PM 36.2814 -78.9031 169° South 289 333 9,700 -984 Descending Washington Center
Tue 04:09:46 PM 36.2483 -78.8914 164° South 308 354 9,000 -1,475 Descending Washington Center
Tue 04:10:17 PM 36.2069 -78.8792 167° South 269 310 8,200 -1,017 Descending Washington Center
Tue 04:10:45 PM 36.1800 -78.8731 170° South 278 320 8,000 -164 Descending Washington Center
Tue 04:11:30 PM 36.1178 -78.8575 169° South 271 312 8,000  Level Washington Center
Tue 04:11:45 PM 36.1014 -78.8517 164° South 268 308 8,000  Level Washington Center
Tue 04:12:24 PM 36.0494 -78.8419 171° South 253 291 8,000  Level Washington Center
Tue 04:12:46 PM 36.0306 -78.8411 178° South 262 302 8,000 -109 Level Washington Center
Tue 04:13:19 PM 35.9950 -78.8447 185° South 235 270 7,900 -712 Descending Washington Center
Tue 04:13:45 PM 35.9678 -78.8539 195° South 248 285 7,300 -1,377 Descending Washington Center
Tue 04:14:20 PM 35.9336 -78.8833 215° Southwest 228 262 6,500 -1,300 Descending Washington Center
Tue 04:14:45 PM 35.9142 -78.9006 216° Southwest 228 262 6,000 -1,385 Descending Washington Center
Tue 04:15:38 PM 35.8775 -78.9503 228° Southwest 220 253 4,700 -1,800 Descending Washington Center
Tue 04:16:45 PM 35.8228 -78.9633 191° South 210 242 2,400 -1,266 Descending Washington Center
Tue 04:17:46 PM 35.7994 -78.9033 116° Southeast 191 220 2,000 -291 Descending Washington Center
Tue 04:18:28 PM 35.8211 -78.8683 53° Northeast 161 185 1,900 -495 Descending Washington Center
Tue 04:19:23 PM 35.8450 -78.8386 45° Northeast 134 154 1,200 -764 Descending Washington Center
Tue 04:21:00 PM 35.8667 -78.7833 49° Northeast  Level FlightAware Approximate
Tue 04:28:00 PM 35.8776 -78.7875 49° Northeast  Level Estimated
Tue 04:29:00 PM 35.8776 -78.7875 49° Northeast  Level Estimated
Tue 04:30:00 PM 35.8776 -78.7875 49° Northeast  Level Estimated

Login

Don't have an account? Register now (free) for customized features, flight alerts, and more!